sensor_id;sensor_type;location;lat;lon;timestamp;temperature;humidity
16515;DHT22;8370;52.556;7.970;2023-05-21T00:02:05;14.70;99.90
16515;DHT22;8370;52.556;7.970;2023-05-21T00:04:38;14.80;99.90
16515;DHT22;8370;52.556;7.970;2023-05-21T00:07:07;14.70;99.90
16515;DHT22;8370;52.556;7.970;2023-05-21T00:09:32;14.70;99.90
16515;DHT22;8370;52.556;7.970;2023-05-21T00:11:58;14.70;99.90
16515;DHT22;8370;52.556;7.970;2023-05-21T00:14:23;14.70;99.90
16515;DHT22;8370;52.556;7.970;2023-05-21T00:16:49;14.70;99.90
16515;DHT22;8370;52.556;7.970;2023-05-21T00:19:14;14.70;99.90
16515;DHT22;8370;52.556;7.970;2023-05-21T00:21:40;14.60;99.90
16515;DHT22;8370;52.556;7.970;2023-05-21T00:24:05;14.70;99.90
16515;DHT22;8370;52.556;7.970;2023-05-21T00:26:31;14.70;99.90
16515;DHT22;8370;52.556;7.970;2023-05-21T00:28:56;14.60;99.90
16515;DHT22;8370;52.556;7.970;2023-05-21T00:31:22;14.60;99.90
16515;DHT22;8370;52.556;7.970;2023-05-21T00:33:47;14.60;99.90
16515;DHT22;8370;52.556;7.970;2023-05-21T00:36:13;14.50;99.90
16515;DHT22;8370;52.556;7.970;2023-05-21T00:38:39;14.50;99.90
16515;DHT22;8370;52.556;7.970;2023-05-21T00:41:08;14.50;99.90
16515;DHT22;8370;52.556;7.970;2023-05-21T00:43:33;14.50;99.90
16515;DHT22;8370;52.556;7.970;2023-05-21T00:45:59;14.50;99.90
16515;DHT22;8370;52.556;7.970;2023-05-21T00:48:24;14.50;99.90
16515;DHT22;8370;52.556;7.970;2023-05-21T00:50:50;14.50;99.90
16515;DHT22;8370;52.556;7.970;2023-05-21T00:53:16;14.50;99.90
16515;DHT22;8370;52.556;7.970;2023-05-21T00:55:44;14.40;99.90
16515;DHT22;8370;52.556;7.970;2023-05-21T00:58:09;14.40;99.90
16515;DHT22;8370;52.556;7.970;2023-05-21T01:00:35;14.30;99.90
16515;DHT22;8370;52.556;7.970;2023-05-21T01:03:02;14.30;99.90
16515;DHT22;8370;52.556;7.970;2023-05-21T01:05:28;14.30;99.90
16515;DHT22;8370;52.556;7.970;2023-05-21T01:07:53;14.20;99.90
16515;DHT22;8370;52.556;7.970;2023-05-21T01:10:20;14.20;99.90
16515;DHT22;8370;52.556;7.970;2023-05-21T01:12:45;14.20;99.90
16515;DHT22;8370;52.556;7.970;2023-05-21T01:15:12;14.10;99.90
16515;DHT22;8370;52.556;7.970;2023-05-21T01:17:38;14.10;99.90
16515;DHT22;8370;52.556;7.970;2023-05-21T01:20:04;14.00;99.90
16515;DHT22;8370;52.556;7.970;2023-05-21T01:22:35;13.90;99.90
16515;DHT22;8370;52.556;7.970;2023-05-21T01:25:03;13.90;99.90
16515;DHT22;8370;52.556;7.970;2023-05-21T01:27:29;13.90;99.90
16515;DHT22;8370;52.556;7.970;2023-05-21T01:29:54;13.80;99.90
16515;DHT22;8370;52.556;7.970;2023-05-21T01:35:09;13.80;99.90
16515;DHT22;8370;52.556;7.970;2023-05-21T01:40:15;13.80;99.90
16515;DHT22;8370;52.556;7.970;2023-05-21T01:42:42;13.80;99.90
16515;DHT22;8370;52.556;7.970;2023-05-21T01:45:08;13.70;99.90
16515;DHT22;8370;52.556;7.970;2023-05-21T01:47:34;13.70;99.90
16515;DHT22;8370;52.556;7.970;2023-05-21T01:50:00;13.60;99.90
16515;DHT22;8370;52.556;7.970;2023-05-21T01:52:27;13.70;99.90
16515;DHT22;8370;52.556;7.970;2023-05-21T01:54:54;13.60;99.90
16515;DHT22;8370;52.556;7.970;2023-05-21T01:57:20;13.50;99.90
16515;DHT22;8370;52.556;7.970;2023-05-21T01:59:45;13.50;99.90
16515;DHT22;8370;52.556;7.970;2023-05-21T02:02:12;13.40;99.90
16515;DHT22;8370;52.556;7.970;2023-05-21T02:04:37;13.40;99.90
16515;DHT22;8370;52.556;7.970;2023-05-21T02:07:05;13.40;99.90
16515;DHT22;8370;52.556;7.970;2023-05-21T02:09:31;13.40;99.90
16515;DHT22;8370;52.556;7.970;2023-05-21T02:11:56;13.30;99.90
16515;DHT22;8370;52.556;7.970;2023-05-21T02:14:22;13.30;99.90
16515;DHT22;8370;52.556;7.970;2023-05-21T02:16:49;13.30;99.90
16515;DHT22;8370;52.556;7.970;2023-05-21T02:19:16;13.20;99.90
16515;DHT22;8370;52.556;7.970;2023-05-21T02:21:42;13.20;99.90
16515;DHT22;8370;52.556;7.970;2023-05-21T02:24:07;13.20;99.90
16515;DHT22;8370;52.556;7.970;2023-05-21T02:26:33;13.10;99.90
16515;DHT22;8370;52.556;7.970;2023-05-21T02:28:59;13.10;99.90
16515;DHT22;8370;52.556;7.970;2023-05-21T02:31:24;13.10;99.90
16515;DHT22;8370;52.556;7.970;2023-05-21T02:33:50;13.10;99.90
16515;DHT22;8370;52.556;7.970;2023-05-21T02:36:15;13.00;99.90
16515;DHT22;8370;52.556;7.970;2023-05-21T02:38:43;13.00;99.90
16515;DHT22;8370;52.556;7.970;2023-05-21T02:41:09;13.00;99.90
16515;DHT22;8370;52.556;7.970;2023-05-21T02:43:35;13.00;99.90
16515;DHT22;8370;52.556;7.970;2023-05-21T02:46:00;13.00;99.90
16515;DHT22;8370;52.556;7.970;2023-05-21T02:48:26;13.00;99.90
16515;DHT22;8370;52.556;7.970;2023-05-21T02:50:51;13.00;99.90
16515;DHT22;8370;52.556;7.970;2023-05-21T02:53:16;13.00;99.90
16515;DHT22;8370;52.556;7.970;2023-05-21T02:55:42;13.00;99.90
16515;DHT22;8370;52.556;7.970;2023-05-21T02:58:07;12.90;99.90
16515;DHT22;8370;52.556;7.970;2023-05-21T03:00:33;12.90;99.90
16515;DHT22;8370;52.556;7.970;2023-05-21T03:02:58;12.80;99.90
16515;DHT22;8370;52.556;7.970;2023-05-21T03:05:24;12.80;99.90
16515;DHT22;8370;52.556;7.970;2023-05-21T03:07:49;12.80;99.90
16515;DHT22;8370;52.556;7.970;2023-05-21T03:10:15;12.80;99.90
16515;DHT22;8370;52.556;7.970;2023-05-21T03:12:40;12.80;99.90
16515;DHT22;8370;52.556;7.970;2023-05-21T03:15:06;12.70;99.90
16515;DHT22;8370;52.556;7.970;2023-05-21T03:17:31;12.70;99.90
16515;DHT22;8370;52.556;7.970;2023-05-21T03:19:57;12.70;99.90
16515;DHT22;8370;52.556;7.970;2023-05-21T03:22:22;12.70;99.90
16515;DHT22;8370;52.556;7.970;2023-05-21T03:24:48;12.70;99.90
16515;DHT22;8370;52.556;7.970;2023-05-21T03:27:13;12.60;99.90
16515;DHT22;8370;52.556;7.970;2023-05-21T03:29:39;12.70;99.90
16515;DHT22;8370;52.556;7.970;2023-05-21T03:32:04;12.60;99.90
16515;DHT22;8370;52.556;7.970;2023-05-21T03:34:30;12.60;99.90
16515;DHT22;8370;52.556;7.970;2023-05-21T03:36:58;12.60;99.90
16515;DHT22;8370;52.556;7.970;2023-05-21T03:39:24;12.60;99.90
16515;DHT22;8370;52.556;7.970;2023-05-21T03:41:49;12.60;99.90
16515;DHT22;8370;52.556;7.970;2023-05-21T03:44:15;12.60;99.90
16515;DHT22;8370;52.556;7.970;2023-05-21T03:46:40;12.60;99.90
16515;DHT22;8370;52.556;7.970;2023-05-21T03:49:06;12.60;99.90
16515;DHT22;8370;52.556;7.970;2023-05-21T03:51:32;12.60;99.90
16515;DHT22;8370;52.556;7.970;2023-05-21T03:53:57;12.60;99.90
16515;DHT22;8370;52.556;7.970;2023-05-21T03:56:23;12.60;99.90
16515;DHT22;8370;52.556;7.970;2023-05-21T03:58:48;12.60;99.90
16515;DHT22;8370;52.556;7.970;2023-05-21T04:01:14;12.60;99.90
16515;DHT22;8370;52.556;7.970;2023-05-21T04:03:40;12.60;99.90
16515;DHT22;8370;52.556;7.970;2023-05-21T04:06:05;12.60;99.90
16515;DHT22;8370;52.556;7.970;2023-05-21T04:08:31;12.60;99.90
16515;DHT22;8370;52.556;7.970;2023-05-21T04:10:56;12.70;99.90
16515;DHT22;8370;52.556;7.970;2023-05-21T04:13:22;12.70;99.90
16515;DHT22;8370;52.556;7.970;2023-05-21T04:15:47;12.70;99.90
16515;DHT22;8370;52.556;7.970;2023-05-21T04:18:13;12.70;99.90
16515;DHT22;8370;52.556;7.970;2023-05-21T04:20:40;12.80;99.90
16515;DHT22;8370;52.556;7.970;2023-05-21T04:23:06;12.80;99.90
16515;DHT22;8370;52.556;7.970;2023-05-21T04:25:31;12.80;99.90
16515;DHT22;8370;52.556;7.970;2023-05-21T04:27:57;12.80;99.90
16515;DHT22;8370;52.556;7.970;2023-05-21T04:30:22;12.90;99.90
16515;DHT22;8370;52.556;7.970;2023-05-21T04:32:48;12.90;99.90
16515;DHT22;8370;52.556;7.970;2023-05-21T04:35:13;12.90;99.90
16515;DHT22;8370;52.556;7.970;2023-05-21T04:37:39;12.90;99.90
16515;DHT22;8370;52.556;7.970;2023-05-21T04:40:07;13.00;99.90
16515;DHT22;8370;52.556;7.970;2023-05-21T04:42:33;13.00;99.90
16515;DHT22;8370;52.556;7.970;2023-05-21T04:44:58;13.00;99.90
16515;DHT22;8370;52.556;7.970;2023-05-21T04:47:24;13.00;99.90
16515;DHT22;8370;52.556;7.970;2023-05-21T04:49:49;13.00;99.90
16515;DHT22;8370;52.556;7.970;2023-05-21T04:52:15;13.10;99.90
16515;DHT22;8370;52.556;7.970;2023-05-21T04:54:41;13.20;99.90
16515;DHT22;8370;52.556;7.970;2023-05-21T04:57:06;13.10;99.90
16515;DHT22;8370;52.556;7.970;2023-05-21T04:59:32;13.10;99.90
16515;DHT22;8370;52.556;7.970;2023-05-21T05:01:57;13.20;99.90
16515;DHT22;8370;52.556;7.970;2023-05-21T05:04:22;13.20;99.90
16515;DHT22;8370;52.556;7.970;2023-05-21T05:06:48;13.30;99.90
16515;DHT22;8370;52.556;7.970;2023-05-21T05:09:14;13.30;99.90
16515;DHT22;8370;52.556;7.970;2023-05-21T05:11:39;13.40;99.90
16515;DHT22;8370;52.556;7.970;2023-05-21T05:14:05;13.40;99.90
16515;DHT22;8370;52.556;7.970;2023-05-21T05:16:31;13.40;99.90
16515;DHT22;8370;52.556;7.970;2023-05-21T05:18:56;13.50;99.90
16515;DHT22;8370;52.556;7.970;2023-05-21T05:21:22;13.50;99.90
16515;DHT22;8370;52.556;7.970;2023-05-21T05:23:48;13.60;99.90
16515;DHT22;8370;52.556;7.970;2023-05-21T05:26:13;13.70;99.90
16515;DHT22;8370;52.556;7.970;2023-05-21T05:28:39;13.80;99.90
16515;DHT22;8370;52.556;7.970;2023-05-21T05:31:04;13.90;99.90
16515;DHT22;8370;52.556;7.970;2023-05-21T05:33:29;14.00;99.90
16515;DHT22;8370;52.556;7.970;2023-05-21T05:35:55;14.00;99.90
16515;DHT22;8370;52.556;7.970;2023-05-21T05:38:20;14.10;99.90
16515;DHT22;8370;52.556;7.970;2023-05-21T05:40:46;14.20;99.90
16515;DHT22;8370;52.556;7.970;2023-05-21T05:43:11;14.20;99.90
16515;DHT22;8370;52.556;7.970;2023-05-21T05:45:37;14.30;99.90
16515;DHT22;8370;52.556;7.970;2023-05-21T05:48:02;14.40;99.90
16515;DHT22;8370;52.556;7.970;2023-05-21T05:50:28;14.50;99.90
16515;DHT22;8370;52.556;7.970;2023-05-21T05:52:53;14.50;99.90
16515;DHT22;8370;52.556;7.970;2023-05-21T05:55:19;14.60;99.90
16515;DHT22;8370;52.556;7.970;2023-05-21T05:57:46;14.70;99.90
16515;DHT22;8370;52.556;7.970;2023-05-21T06:00:12;14.70;99.90
16515;DHT22;8370;52.556;7.970;2023-05-21T06:02:37;14.80;99.90
16515;DHT22;8370;52.556;7.970;2023-05-21T06:05:03;14.90;99.90
16515;DHT22;8370;52.556;7.970;2023-05-21T06:07:28;14.80;99.90
16515;DHT22;8370;52.556;7.970;2023-05-21T06:09:54;14.80;99.90
16515;DHT22;8370;52.556;7.970;2023-05-21T06:12:19;14.90;99.90
16515;DHT22;8370;52.556;7.970;2023-05-21T06:14:45;14.80;99.90
16515;DHT22;8370;52.556;7.970;2023-05-21T06:17:11;14.90;99.90
16515;DHT22;8370;52.556;7.970;2023-05-21T06:19:37;15.00;99.90
16515;DHT22;8370;52.556;7.970;2023-05-21T06:22:02;15.00;99.90
16515;DHT22;8370;52.556;7.970;2023-05-21T06:24:28;15.00;99.90
16515;DHT22;8370;52.556;7.970;2023-05-21T06:26:54;15.00;99.90
16515;DHT22;8370;52.556;7.970;2023-05-21T06:29:19;15.10;99.90
16515;DHT22;8370;52.556;7.970;2023-05-21T06:31:45;15.10;99.90
16515;DHT22;8370;52.556;7.970;2023-05-21T06:34:11;15.30;99.90
16515;DHT22;8370;52.556;7.970;2023-05-21T06:36:36;15.30;99.90
16515;DHT22;8370;52.556;7.970;2023-05-21T06:39:02;15.40;99.90
16515;DHT22;8370;52.556;7.970;2023-05-21T06:41:27;15.40;99.90
16515;DHT22;8370;52.556;7.970;2023-05-21T06:43:53;15.40;99.90
16515;DHT22;8370;52.556;7.970;2023-05-21T06:46:18;15.50;99.90
16515;DHT22;8370;52.556;7.970;2023-05-21T06:48:43;15.50;99.90
16515;DHT22;8370;52.556;7.970;2023-05-21T06:51:10;15.50;99.90
16515;DHT22;8370;52.556;7.970;2023-05-21T06:53:36;15.60;99.90
16515;DHT22;8370;52.556;7.970;2023-05-21T06:56:08;15.60;99.90
16515;DHT22;8370;52.556;7.970;2023-05-21T06:58:34;15.70;99.90
16515;DHT22;8370;52.556;7.970;2023-05-21T07:00:59;15.70;99.90
16515;DHT22;8370;52.556;7.970;2023-05-21T07:03:25;15.70;99.90
16515;DHT22;8370;52.556;7.970;2023-05-21T07:05:52;15.70;99.90
16515;DHT22;8370;52.556;7.970;2023-05-21T07:08:17;15.70;99.90
16515;DHT22;8370;52.556;7.970;2023-05-21T07:10:44;15.80;99.90
16515;DHT22;8370;52.556;7.970;2023-05-21T07:13:10;15.80;99.90
16515;DHT22;8370;52.556;7.970;2023-05-21T07:15:36;15.90;99.90
16515;DHT22;8370;52.556;7.970;2023-05-21T07:18:01;16.00;99.90
16515;DHT22;8370;52.556;7.970;2023-05-21T07:20:27;16.00;99.90
16515;DHT22;8370;52.556;7.970;2023-05-21T07:22:53;16.00;99.90
16515;DHT22;8370;52.556;7.970;2023-05-21T07:25:18;16.00;99.90
16515;DHT22;8370;52.556;7.970;2023-05-21T07:27:44;16.10;99.90
16515;DHT22;8370;52.556;7.970;2023-05-21T07:30:09;16.20;99.90
16515;DHT22;8370;52.556;7.970;2023-05-21T07:32:35;16.30;99.90
16515;DHT22;8370;52.556;7.970;2023-05-21T07:35:00;16.40;99.90
16515;DHT22;8370;52.556;7.970;2023-05-21T07:37:26;16.40;99.90
16515;DHT22;8370;52.556;7.970;2023-05-21T07:39:53;16.40;99.90
16515;DHT22;8370;52.556;7.970;2023-05-21T07:42:18;16.50;99.90
16515;DHT22;8370;52.556;7.970;2023-05-21T07:44:43;16.60;99.90
16515;DHT22;8370;52.556;7.970;2023-05-21T07:47:09;16.70;99.90
16515;DHT22;8370;52.556;7.970;2023-05-21T07:49:35;16.80;99.90
16515;DHT22;8370;52.556;7.970;2023-05-21T07:52:00;16.90;99.90
16515;DHT22;8370;52.556;7.970;2023-05-21T07:54:26;16.90;99.90
16515;DHT22;8370;52.556;7.970;2023-05-21T07:56:52;16.90;99.90
16515;DHT22;8370;52.556;7.970;2023-05-21T07:59:17;17.00;99.90
16515;DHT22;8370;52.556;7.970;2023-05-21T08:01:43;17.10;99.90
16515;DHT22;8370;52.556;7.970;2023-05-21T08:04:08;17.10;99.90
16515;DHT22;8370;52.556;7.970;2023-05-21T08:06:34;17.10;99.90
16515;DHT22;8370;52.556;7.970;2023-05-21T08:08:59;17.20;99.90
16515;DHT22;8370;52.556;7.970;2023-05-21T08:11:26;17.20;99.90
16515;DHT22;8370;52.556;7.970;2023-05-21T08:13:51;17.30;99.90
16515;DHT22;8370;52.556;7.970;2023-05-21T08:16:17;17.30;99.90
16515;DHT22;8370;52.556;7.970;2023-05-21T08:18:42;17.40;99.90
16515;DHT22;8370;52.556;7.970;2023-05-21T08:21:08;17.40;99.90
16515;DHT22;8370;52.556;7.970;2023-05-21T08:23:33;17.40;99.90
16515;DHT22;8370;52.556;7.970;2023-05-21T08:25:59;17.40;99.90
16515;DHT22;8370;52.556;7.970;2023-05-21T08:28:24;17.40;99.90
16515;DHT22;8370;52.556;7.970;2023-05-21T08:30:51;17.40;99.90
16515;DHT22;8370;52.556;7.970;2023-05-21T08:33:17;17.40;99.90
16515;DHT22;8370;52.556;7.970;2023-05-21T08:35:43;17.40;99.90
16515;DHT22;8370;52.556;7.970;2023-05-21T08:38:08;17.40;99.90
16515;DHT22;8370;52.556;7.970;2023-05-21T08:40:33;17.50;99.90
16515;DHT22;8370;52.556;7.970;2023-05-21T08:42:59;17.50;99.90
16515;DHT22;8370;52.556;7.970;2023-05-21T08:45:25;17.50;99.90
16515;DHT22;8370;52.556;7.970;2023-05-21T08:47:54;17.60;99.90
16515;DHT22;8370;52.556;7.970;2023-05-21T08:50:21;17.60;99.90
16515;DHT22;8370;52.556;7.970;2023-05-21T08:52:48;17.70;99.90
16515;DHT22;8370;52.556;7.970;2023-05-21T08:55:14;17.80;99.90
16515;DHT22;8370;52.556;7.970;2023-05-21T08:57:41;17.90;99.90
16515;DHT22;8370;52.556;7.970;2023-05-21T09:00:07;18.00;99.90
16515;DHT22;8370;52.556;7.970;2023-05-21T09:02:33;18.10;99.90
16515;DHT22;8370;52.556;7.970;2023-05-21T09:04:59;18.20;99.90
16515;DHT22;8370;52.556;7.970;2023-05-21T09:07:27;18.30;99.90
16515;DHT22;8370;52.556;7.970;2023-05-21T09:10:03;18.50;99.90
16515;DHT22;8370;52.556;7.970;2023-05-21T09:12:30;18.50;99.90
16515;DHT22;8370;52.556;7.970;2023-05-21T09:14:56;18.60;99.90
16515;DHT22;8370;52.556;7.970;2023-05-21T09:17:22;18.70;99.90
16515;DHT22;8370;52.556;7.970;2023-05-21T09:20:05;18.90;99.90
16515;DHT22;8370;52.556;7.970;2023-05-21T09:22:35;19.00;99.90
16515;DHT22;8370;52.556;7.970;2023-05-21T09:25:05;19.10;99.90
16515;DHT22;8370;52.556;7.970;2023-05-21T09:27:31;19.20;99.90
16515;DHT22;8370;52.556;7.970;2023-05-21T09:29:56;19.20;99.90
16515;DHT22;8370;52.556;7.970;2023-05-21T09:32:22;19.30;99.90
16515;DHT22;8370;52.556;7.970;2023-05-21T09:34:47;19.40;99.90
16515;DHT22;8370;52.556;7.970;2023-05-21T09:37:12;19.60;99.90
16515;DHT22;8370;52.556;7.970;2023-05-21T09:39:39;19.70;99.90
16515;DHT22;8370;52.556;7.970;2023-05-21T09:42:06;19.80;99.90
16515;DHT22;8370;52.556;7.970;2023-05-21T09:44:31;19.90;99.90
16515;DHT22;8370;52.556;7.970;2023-05-21T09:46:58;20.00;99.90
16515;DHT22;8370;52.556;7.970;2023-05-21T09:49:24;20.10;99.90
16515;DHT22;8370;52.556;7.970;2023-05-21T09:51:53;20.20;99.90
16515;DHT22;8370;52.556;7.970;2023-05-21T09:54:19;20.30;99.90
16515;DHT22;8370;52.556;7.970;2023-05-21T09:56:45;20.40;99.90
16515;DHT22;8370;52.556;7.970;2023-05-21T09:59:10;20.50;99.90
16515;DHT22;8370;52.556;7.970;2023-05-21T10:01:36;20.50;99.90
16515;DHT22;8370;52.556;7.970;2023-05-21T10:04:06;20.60;99.90
16515;DHT22;8370;52.556;7.970;2023-05-21T10:06:33;20.60;99.90
16515;DHT22;8370;52.556;7.970;2023-05-21T10:09:01;20.60;99.90
16515;DHT22;8370;52.556;7.970;2023-05-21T10:11:30;20.70;99.90
16515;DHT22;8370;52.556;7.970;2023-05-21T10:14:05;20.70;99.90
16515;DHT22;8370;52.556;7.970;2023-05-21T10:16:32;20.80;99.90
16515;DHT22;8370;52.556;7.970;2023-05-21T10:18:57;20.80;99.90
16515;DHT22;8370;52.556;7.970;2023-05-21T10:21:23;20.90;99.90
16515;DHT22;8370;52.556;7.970;2023-05-21T10:23:48;20.90;99.90
16515;DHT22;8370;52.556;7.970;2023-05-21T10:26:15;20.90;99.90
16515;DHT22;8370;52.556;7.970;2023-05-21T10:28:41;21.00;99.90
16515;DHT22;8370;52.556;7.970;2023-05-21T10:31:07;21.10;99.90
16515;DHT22;8370;52.556;7.970;2023-05-21T10:33:34;21.10;99.90
16515;DHT22;8370;52.556;7.970;2023-05-21T10:35:59;21.30;99.90
16515;DHT22;8370;52.556;7.970;2023-05-21T10:38:26;21.30;99.90
16515;DHT22;8370;52.556;7.970;2023-05-21T10:40:51;21.40;99.90
16515;DHT22;8370;52.556;7.970;2023-05-21T10:51:08;21.50;99.90
16515;DHT22;8370;52.556;7.970;2023-05-21T10:56:22;21.50;99.90
16515;DHT22;8370;52.556;7.970;2023-05-21T11:01:14;21.40;99.90
16515;DHT22;8370;52.556;7.970;2023-05-21T11:03:40;21.30;99.90
16515;DHT22;8370;52.556;7.970;2023-05-21T11:06:06;21.30;99.90
16515;DHT22;8370;52.556;7.970;2023-05-21T11:08:32;21.30;99.90
16515;DHT22;8370;52.556;7.970;2023-05-21T11:11:03;21.30;99.90
16515;DHT22;8370;52.556;7.970;2023-05-21T11:13:43;21.30;99.90
16515;DHT22;8370;52.556;7.970;2023-05-21T11:16:12;21.30;99.90
16515;DHT22;8370;52.556;7.970;2023-05-21T11:21:10;21.40;99.90
16515;DHT22;8370;52.556;7.970;2023-05-21T11:23:55;21.40;99.90
16515;DHT22;8370;52.556;7.970;2023-05-21T11:26:24;21.50;99.90
16515;DHT22;8370;52.556;7.970;2023-05-21T11:29:09;21.50;99.90
16515;DHT22;8370;52.556;7.970;2023-05-21T11:31:35;21.60;99.90
16515;DHT22;8370;52.556;7.970;2023-05-21T11:34:10;21.80;99.90
16515;DHT22;8370;52.556;7.970;2023-05-21T11:36:36;21.90;99.90
16515;DHT22;8370;52.556;7.970;2023-05-21T11:39:15;21.90;99.90
16515;DHT22;8370;52.556;7.970;2023-05-21T11:41:59;22.00;99.90
16515;DHT22;8370;52.556;7.970;2023-05-21T11:44:43;22.10;99.90
16515;DHT22;8370;52.556;7.970;2023-05-21T11:47:13;22.10;99.90
16515;DHT22;8370;52.556;7.970;2023-05-21T11:49:42;22.20;99.90
16515;DHT22;8370;52.556;7.970;2023-05-21T11:52:08;22.30;99.90
16515;DHT22;8370;52.556;7.970;2023-05-21T11:54:40;22.50;99.90
16515;DHT22;8370;52.556;7.970;2023-05-21T11:57:08;22.50;99.90
16515;DHT22;8370;52.556;7.970;2023-05-21T11:59:33;22.70;99.90
16515;DHT22;8370;52.556;7.970;2023-05-21T12:01:59;22.90;99.90
16515;DHT22;8370;52.556;7.970;2023-05-21T12:04:28;23.10;99.90
16515;DHT22;8370;52.556;7.970;2023-05-21T12:06:54;23.30;99.90
16515;DHT22;8370;52.556;7.970;2023-05-21T12:09:19;23.50;99.90
16515;DHT22;8370;52.556;7.970;2023-05-21T12:11:45;23.70;99.90
16515;DHT22;8370;52.556;7.970;2023-05-21T12:14:10;23.90;99.90
16515;DHT22;8370;52.556;7.970;2023-05-21T12:16:36;24.10;99.90
16515;DHT22;8370;52.556;7.970;2023-05-21T12:19:03;24.30;99.90
16515;DHT22;8370;52.556;7.970;2023-05-21T12:21:28;24.60;99.90
16515;DHT22;8370;52.556;7.970;2023-05-21T12:23:54;24.80;99.90
16515;DHT22;8370;52.556;7.970;2023-05-21T12:26:19;25.20;99.90
16515;DHT22;8370;52.556;7.970;2023-05-21T12:28:46;25.60;99.90
16515;DHT22;8370;52.556;7.970;2023-05-21T12:31:14;26.00;99.90
16515;DHT22;8370;52.556;7.970;2023-05-21T12:33:43;26.20;99.90
16515;DHT22;8370;52.556;7.970;2023-05-21T12:36:08;26.60;99.90
16515;DHT22;8370;52.556;7.970;2023-05-21T12:38:34;27.50;99.90
16515;DHT22;8370;52.556;7.970;2023-05-21T12:41:07;28.20;99.90
16515;DHT22;8370;52.556;7.970;2023-05-21T12:43:32;28.50;99.90
16515;DHT22;8370;52.556;7.970;2023-05-21T12:45:58;28.50;99.90
16515;DHT22;8370;52.556;7.970;2023-05-21T12:48:23;28.50;99.90
16515;DHT22;8370;52.556;7.970;2023-05-21T12:50:50;28.10;99.90
16515;DHT22;8370;52.556;7.970;2023-05-21T12:53:15;27.80;99.90
16515;DHT22;8370;52.556;7.970;2023-05-21T12:55:41;27.60;99.90
16515;DHT22;8370;52.556;7.970;2023-05-21T12:58:06;27.50;99.90
16515;DHT22;8370;52.556;7.970;2023-05-21T13:00:32;27.30;99.90
16515;DHT22;8370;52.556;7.970;2023-05-21T13:02:58;27.30;99.90
16515;DHT22;8370;52.556;7.970;2023-05-21T13:05:28;27.10;99.90
16515;DHT22;8370;52.556;7.970;2023-05-21T13:07:53;26.80;99.90
16515;DHT22;8370;52.556;7.970;2023-05-21T13:10:19;26.50;99.90
16515;DHT22;8370;52.556;7.970;2023-05-21T13:12:44;26.20;99.90
16515;DHT22;8370;52.556;7.970;2023-05-21T13:15:10;25.90;99.90
16515;DHT22;8370;52.556;7.970;2023-05-21T13:17:35;25.80;99.90
16515;DHT22;8370;52.556;7.970;2023-05-21T13:20:21;25.90;99.90
16515;DHT22;8370;52.556;7.970;2023-05-21T13:22:50;26.00;99.90
16515;DHT22;8370;52.556;7.970;2023-05-21T13:25:16;26.20;99.90
16515;DHT22;8370;52.556;7.970;2023-05-21T13:27:45;26.40;99.90
16515;DHT22;8370;52.556;7.970;2023-05-21T13:30:11;26.70;99.90
16515;DHT22;8370;52.556;7.970;2023-05-21T13:32:37;26.90;99.90
16515;DHT22;8370;52.556;7.970;2023-05-21T13:35:03;27.20;99.90
16515;DHT22;8370;52.556;7.970;2023-05-21T13:37:28;27.40;99.90
16515;DHT22;8370;52.556;7.970;2023-05-21T13:39:55;27.60;99.90
16515;DHT22;8370;52.556;7.970;2023-05-21T13:42:20;27.60;99.90
16515;DHT22;8370;52.556;7.970;2023-05-21T13:44:46;27.50;99.90
16515;DHT22;8370;52.556;7.970;2023-05-21T13:47:12;27.40;99.90
16515;DHT22;8370;52.556;7.970;2023-05-21T13:49:38;27.40;99.90
16515;DHT22;8370;52.556;7.970;2023-05-21T13:52:04;27.40;99.90
16515;DHT22;8370;52.556;7.970;2023-05-21T13:54:29;27.40;99.90
16515;DHT22;8370;52.556;7.970;2023-05-21T13:56:55;27.40;99.90
16515;DHT22;8370;52.556;7.970;2023-05-21T13:59:20;27.40;99.90
16515;DHT22;8370;52.556;7.970;2023-05-21T14:01:46;27.40;99.90
16515;DHT22;8370;52.556;7.970;2023-05-21T14:04:12;27.40;99.90
16515;DHT22;8370;52.556;7.970;2023-05-21T14:06:37;27.30;99.90
16515;DHT22;8370;52.556;7.970;2023-05-21T14:09:03;27.30;99.90
16515;DHT22;8370;52.556;7.970;2023-05-21T14:11:29;27.20;99.90
16515;DHT22;8370;52.556;7.970;2023-05-21T14:13:54;27.10;99.90
16515;DHT22;8370;52.556;7.970;2023-05-21T14:16:20;27.00;99.90
16515;DHT22;8370;52.556;7.970;2023-05-21T14:18:49;27.00;99.90
16515;DHT22;8370;52.556;7.970;2023-05-21T14:21:14;27.00;99.90
16515;DHT22;8370;52.556;7.970;2023-05-21T14:23:40;27.00;99.90
16515;DHT22;8370;52.556;7.970;2023-05-21T14:26:05;27.10;99.90
16515;DHT22;8370;52.556;7.970;2023-05-21T14:28:31;27.20;99.90
16515;DHT22;8370;52.556;7.970;2023-05-21T14:30:56;27.30;99.90
16515;DHT22;8370;52.556;7.970;2023-05-21T14:33:21;27.30;99.90
16515;DHT22;8370;52.556;7.970;2023-05-21T14:35:47;27.20;99.90
16515;DHT22;8370;52.556;7.970;2023-05-21T14:38:12;27.20;99.90
16515;DHT22;8370;52.556;7.970;2023-05-21T14:40:38;27.10;99.90
16515;DHT22;8370;52.556;7.970;2023-05-21T14:43:03;27.00;99.90
16515;DHT22;8370;52.556;7.970;2023-05-21T14:45:30;27.10;99.90
16515;DHT22;8370;52.556;7.970;2023-05-21T14:47:58;27.10;99.90
16515;DHT22;8370;52.556;7.970;2023-05-21T14:50:24;27.10;99.90
16515;DHT22;8370;52.556;7.970;2023-05-21T14:52:49;27.10;99.90
16515;DHT22;8370;52.556;7.970;2023-05-21T14:55:14;27.00;99.90
16515;DHT22;8370;52.556;7.970;2023-05-21T14:57:42;27.10;99.90
16515;DHT22;8370;52.556;7.970;2023-05-21T15:00:08;27.10;99.90
16515;DHT22;8370;52.556;7.970;2023-05-21T15:02:34;27.20;99.90
16515;DHT22;8370;52.556;7.970;2023-05-21T15:04:59;27.30;99.90
16515;DHT22;8370;52.556;7.970;2023-05-21T15:07:25;27.30;99.90
16515;DHT22;8370;52.556;7.970;2023-05-21T15:09:50;27.30;99.90
16515;DHT22;8370;52.556;7.970;2023-05-21T15:12:16;27.20;99.90
16515;DHT22;8370;52.556;7.970;2023-05-21T15:14:41;27.30;99.90
16515;DHT22;8370;52.556;7.970;2023-05-21T15:17:07;27.40;99.90
16515;DHT22;8370;52.556;7.970;2023-05-21T15:19:32;27.30;99.90
16515;DHT22;8370;52.556;7.970;2023-05-21T15:21:58;27.20;99.90
16515;DHT22;8370;52.556;7.970;2023-05-21T15:24:23;27.20;99.90
16515;DHT22;8370;52.556;7.970;2023-05-21T15:26:48;27.10;99.90
16515;DHT22;8370;52.556;7.970;2023-05-21T15:29:14;27.10;99.90
16515;DHT22;8370;52.556;7.970;2023-05-21T15:31:40;27.00;99.90
16515;DHT22;8370;52.556;7.970;2023-05-21T15:34:05;27.00;99.90
16515;DHT22;8370;52.556;7.970;2023-05-21T15:36:31;26.90;99.90
16515;DHT22;8370;52.556;7.970;2023-05-21T15:38:56;26.80;99.90
16515;DHT22;8370;52.556;7.970;2023-05-21T15:41:21;26.60;99.90
16515;DHT22;8370;52.556;7.970;2023-05-21T15:43:47;26.40;99.90
16515;DHT22;8370;52.556;7.970;2023-05-21T15:46:12;26.50;99.90
16515;DHT22;8370;52.556;7.970;2023-05-21T15:48:38;26.50;99.90
16515;DHT22;8370;52.556;7.970;2023-05-21T15:51:03;26.50;99.90
16515;DHT22;8370;52.556;7.970;2023-05-21T15:53:29;26.60;99.90
16515;DHT22;8370;52.556;7.970;2023-05-21T15:55:54;26.60;99.90
16515;DHT22;8370;52.556;7.970;2023-05-21T15:58:20;26.50;99.90
16515;DHT22;8370;52.556;7.970;2023-05-21T16:00:46;26.40;99.90